Time;durP1;ratioP1;P1;durP2;ratioP2;P2;SDS_P1;SDS_P2;PMS_P1;PMS_P2;Temp;Humidity;BMP_temperature;BMP_pressure;BME280_temperature;BME280_humidity;BME280_pressure;Samples;Min_cycle;Max_cycle;Signal;HPM_P1;HPM_P2
2022/11/04 00:00:46;;;;;;;7.30;4.75;;;11.40;99.90;;;;;;5055361;28;20021;-84
2022/11/04 00:03:11;;;;;;;8.18;5.57;;;11.40;99.90;;;;;;5054497;28;20021;-83
2022/11/04 00:05:37;;;;;;;7.15;4.85;;;11.40;99.90;;;;;;5055250;28;20358;-83
2022/11/04 00:13:31;;;;;;;7.27;4.20;;;11.50;99.90;;;;;;5055113;28;20028;-83
2022/11/04 00:18:44;;;;;;;6.55;3.45;;;11.40;99.90;;;;;;5055514;28;20079;-83
2022/11/04 00:29:35;;;;;;;4.35;2.92;;;11.30;99.90;;;;;;5033373;28;20029;-83
2022/11/04 00:34:45;;;;;;;3.83;2.60;;;11.30;99.90;;;;;;5054655;28;20075;-83
2022/11/04 00:37:11;;;;;;;6.97;3.37;;;11.30;99.90;;;;;;5054568;28;20048;-84
2022/11/04 00:39:36;;;;;;;4.63;2.45;;;11.20;99.90;;;;;;5055322;28;20028;-83
2022/11/04 00:42:02;;;;;;;6.65;2.65;;;11.20;99.90;;;;;;5055182;28;20031;-83
2022/11/04 00:44:27;;;;;;;3.73;2.40;;;11.20;99.90;;;;;;5054530;28;20370;-83
2022/11/04 00:46:53;;;;;;;3.57;2.83;;;11.10;99.90;;;;;;5053308;28;20027;-83
2022/11/04 00:49:18;;;;;;;6.50;2.70;;;11.00;99.90;;;;;;5054237;28;20417;-83
2022/11/04 00:51:44;;;;;;;3.60;2.58;;;11.00;99.90;;;;;;5053579;28;20104;-83
2022/11/04 00:54:10;;;;;;;4.45;2.72;;;10.90;99.90;;;;;;5053245;28;20029;-83
2022/11/04 00:56:39;;;;;;;3.35;2.45;;;10.90;99.90;;;;;;5053299;28;20025;-82
2022/11/04 00:59:05;;;;;;;3.20;2.40;;;10.90;99.90;;;;;;5053912;28;20404;-83
2022/11/04 01:01:31;;;;;;;3.40;2.30;;;10.80;99.90;;;;;;5053830;28;20025;-83
2022/11/04 01:03:57;;;;;;;4.20;2.50;;;10.70;99.90;;;;;;5053915;28;20031;-83
2022/11/04 01:06:25;;;;;;;3.75;2.58;;;10.60;99.90;;;;;;5053760;28;20029;-83
2022/11/04 01:09:03;;;;;;;4.50;3.07;;;10.40;99.90;;;;;;5053410;28;20473;-84
2022/11/04 01:11:30;;;;;;;6.23;3.10;;;10.40;99.90;;;;;;5053733;28;20021;-84
2022/11/04 01:13:56;;;;;;;5.72;2.80;;;10.30;99.90;;;;;;5053625;28;20021;-84
2022/11/04 01:16:22;;;;;;;4.53;3.13;;;10.30;99.90;;;;;;5052290;28;20041;-83
2022/11/04 01:18:48;;;;;;;4.63;3.00;;;10.20;99.90;;;;;;5053610;28;20029;-84
2022/11/04 01:21:15;;;;;;;4.60;3.10;;;10.20;99.90;;;;;;5053673;28;20116;-84
2022/11/04 01:23:42;;;;;;;4.40;2.93;;;10.10;99.90;;;;;;5053648;28;20029;-83
2022/11/04 01:26:13;;;;;;;5.17;2.87;;;10.00;99.90;;;;;;5053597;28;20024;-83
2022/11/04 01:28:39;;;;;;;3.93;2.50;;;9.90;99.90;;;;;;5053484;28;20374;-84
2022/11/04 01:31:17;;;;;;;5.40;2.57;;;9.90;99.90;;;;;;5038164;28;20057;-84
2022/11/04 01:33:43;;;;;;;4.43;2.70;;;9.80;99.90;;;;;;5033586;28;20044;-84
2022/11/04 01:36:10;;;;;;;5.37;2.70;;;9.80;99.90;;;;;;5033430;28;20029;-84
2022/11/04 01:38:36;;;;;;;6.47;2.33;;;9.70;99.90;;;;;;5032091;28;20386;-84
2022/11/04 01:41:02;;;;;;;5.27;2.57;;;9.60;99.90;;;;;;5032324;28;20029;-84
2022/11/04 01:43:55;;;;;;;4.27;2.43;;;9.60;99.90;;;;;;5033660;28;20030;-84
2022/11/04 01:46:30;;;;;;;3.80;2.00;;;9.60;99.90;;;;;;5033043;28;20048;-84
2022/11/04 01:49:03;;;;;;;2.60;2.10;;;9.60;99.90;;;;;;5033539;28;20064;-84
2022/11/04 01:51:30;;;;;;;4.60;1.90;;;9.60;99.90;;;;;;5033385;28;20437;-84
2022/11/04 01:53:56;;;;;;;3.07;2.10;;;9.50;99.90;;;;;;5033233;28;20025;-84
2022/11/04 01:56:24;;;;;;;3.00;2.13;;;9.50;99.90;;;;;;5033492;28;20108;-84
2022/11/04 01:58:52;;;;;;;3.30;1.83;;;9.50;99.90;;;;;;5032692;28;20381;-84
2022/11/04 02:01:18;;;;;;;2.87;2.13;;;9.40;99.90;;;;;;5033183;28;20025;-84
2022/11/04 02:04:27;;;;;;;2.20;1.80;;;9.40;99.90;;;;;;5033122;28;20090;-84
2022/11/04 02:07:05;;;;;;;2.57;1.90;;;9.40;99.90;;;;;;5047676;28;20025;-84
2022/11/04 02:09:33;;;;;;;2.20;1.60;;;9.40;99.90;;;;;;5052787;28;20452;-84
2022/11/04 02:14:47;;;;;;;2.22;1.73;;;9.40;99.90;;;;;;5053073;28;20035;-84
2022/11/04 02:17:31;;;;;;;2.30;1.43;;;9.40;99.90;;;;;;5052368;28;20080;-84
2022/11/04 02:20:18;;;;;;;1.60;1.30;;;9.40;99.90;;;;;;5052773;28;20136;-83
2022/11/04 02:23:18;;;;;;;3.13;1.60;;;9.40;99.90;;;;;;5051257;28;20027;-84
2022/11/04 02:26:01;;;;;;;3.63;1.40;;;9.30;99.90;;;;;;5052111;28;20013;-84
2022/11/04 02:28:41;;;;;;;1.40;1.10;;;9.40;99.90;;;;;;5052413;28;20470;-83
2022/11/04 02:31:21;;;;;;;1.90;1.33;;;9.40;99.90;;;;;;5045164;28;20033;-84
2022/11/04 02:34:01;;;;;;;2.37;1.20;;;9.40;99.90;;;;;;5052375;28;20040;-84
2022/11/04 02:36:34;;;;;;;1.43;1.13;;;9.30;99.90;;;;;;5052461;28;20027;-84
2022/11/04 02:39:23;;;;;;;1.30;1.10;;;9.30;99.90;;;;;;5052479;28;20405;-84
2022/11/04 02:41:58;;;;;;;1.10;0.97;;;9.40;99.90;;;;;;5052832;28;20021;-84
2022/11/04 02:44:34;;;;;;;1.60;0.97;;;9.40;99.90;;;;;;5052485;28;20021;-84
2022/11/04 02:46:59;;;;;;;;;;;9.40;99.90;;;;;;5052437;28;20025;-84
2022/11/04 02:49:33;;;;;;;1.30;0.90;;;9.40;99.90;;;;;;5052035;28;19904;-84
2022/11/04 02:52:10;;;;;;;1.87;1.20;;;9.40;99.90;;;;;;5052136;28;20021;-84
2022/11/04 02:54:47;;;;;;;1.53;1.03;;;9.40;99.90;;;;;;5052229;28;20346;-84
2022/11/04 02:57:18;;;;;;;1.67;1.20;;;9.40;99.90;;;;;;5052159;28;20040;-84
2022/11/04 02:59:49;;;;;;;1.30;1.10;;;9.40;99.90;;;;;;5051987;28;20025;-84
2022/11/04 03:02:23;;;;;;;1.70;1.00;;;9.50;99.90;;;;;;5052077;28;20100;-84
2022/11/04 03:04:52;;;;;;;1.08;0.98;;;9.50;99.90;;;;;;5050684;28;20028;-84
2022/11/04 03:07:24;;;;;;;1.30;1.00;;;9.40;99.90;;;;;;5050691;28;20025;-84
2022/11/04 03:09:59;;;;;;;1.80;1.20;;;9.40;99.90;;;;;;5052165;28;20057;-84
2022/11/04 03:12:29;;;;;;;4.20;1.10;;;9.40;99.90;;;;;;5052187;28;20458;-84
2022/11/04 03:15:02;;;;;;;1.23;0.93;;;9.40;99.90;;;;;;5051886;28;20124;-84
2022/11/04 03:17:37;;;;;;;1.70;0.97;;;9.40;99.90;;;;;;5051595;28;20045;-84
2022/11/04 03:20:08;;;;;;;1.92;1.08;;;9.40;99.90;;;;;;5051849;28;20086;-84
2022/11/04 03:22:36;;;;;;;0.80;0.80;;;9.40;99.90;;;;;;5051929;28;20526;-84
2022/11/04 03:25:04;;;;;;;1.17;0.93;;;9.40;99.90;;;;;;5052135;28;20113;-83
2022/11/04 03:27:59;;;;;;;1.50;1.00;;;9.40;99.90;;;;;;5051902;28;20060;-84
2022/11/04 03:30:30;;;;;;;1.17;0.82;;;9.40;99.90;;;;;;5051814;28;20056;-84
2022/11/04 03:33:06;;;;;;;1.47;0.93;;;9.30;99.90;;;;;;5051859;28;20032;-84
2022/11/04 03:35:32;;;;;;;1.13;1.00;;;9.30;99.90;;;;;;5052012;28;20048;-84
2022/11/04 03:37:58;;;;;;;1.50;0.90;;;9.30;99.90;;;;;;5053917;28;20032;-83
2022/11/04 03:40:24;;;;;;;0.97;0.80;;;9.20;99.90;;;;;;5055674;28;20025;-84
2022/11/04 03:43:01;;;;;;;1.53;1.00;;;9.20;99.90;;;;;;5054217;28;20033;-84
2022/11/04 03:45:27;;;;;;;1.30;1.00;;;9.20;99.90;;;;;;5055680;28;20025;-84
2022/11/04 03:47:54;;;;;;;2.20;0.90;;;9.10;99.90;;;;;;5055582;28;20029;-84
2022/11/04 03:50:28;;;;;;;1.43;0.90;;;9.10;99.90;;;;;;5055156;28;20074;-84
2022/11/04 03:52:55;;;;;;;1.58;0.90;;;9.20;99.90;;;;;;5054739;28;20025;-82
2022/11/04 03:55:29;;;;;;;3.60;0.93;;;9.10;99.90;;;;;;5053319;28;20108;-83
2022/11/04 03:58:01;;;;;;;1.03;0.80;;;9.10;99.90;;;;;;5053224;28;20051;-83
2022/11/04 04:00:34;;;;;;;1.23;1.00;;;9.20;99.90;;;;;;5053306;28;20120;-83
2022/11/04 04:03:02;;;;;;;1.10;0.90;;;9.10;99.90;;;;;;5053119;28;20017;-83
2022/11/04 04:05:29;;;;;;;0.80;0.80;;;9.10;99.90;;;;;;5053235;28;20032;-82
2022/11/04 04:08:48;;;;;;;2.87;0.97;;;9.10;99.90;;;;;;5052490;28;20444;-83
2022/11/04 04:11:28;;;;;;;1.80;1.00;;;9.00;99.90;;;;;;5040557;28;20559;-83
2022/11/04 04:14:37;;;;;;;1.10;0.83;;;9.00;99.90;;;;;;5052903;28;20029;-83
2022/11/04 04:17:04;;;;;;;1.20;0.93;;;9.00;99.90;;;;;;5052629;28;20045;-82
2022/11/04 04:19:32;;;;;;;1.50;1.23;;;9.00;99.90;;;;;;5052575;28;20044;-83
2022/11/04 04:22:03;;;;;;;2.10;0.90;;;9.00;99.90;;;;;;5052206;28;20115;-82
2022/11/04 04:27:30;;;;;;;0.90;0.80;;;9.00;99.90;;;;;;5052978;28;20086;-82
2022/11/04 04:30:16;;;;;;;1.90;0.90;;;9.00;99.90;;;;;;5048750;28;20056;-83
2022/11/04 04:32:49;;;;;;;1.30;1.03;;;8.90;99.90;;;;;;5032083;28;20061;-83
2022/11/04 04:46:28;;;;;;;0.80;0.70;;;8.90;99.90;;;;;;5052139;28;20094;-83
2022/11/04 04:48:54;;;;;;;0.80;0.80;;;9.00;99.90;;;;;;5051919;28;20040;-83
2022/11/04 04:51:20;;;;;;;1.10;0.90;;;9.00;99.90;;;;;;5052538;28;20021;-86
2022/11/04 04:53:46;;;;;;;1.23;0.90;;;9.00;99.90;;;;;;5053910;28;20035;-87
2022/11/04 04:56:11;;;;;;;1.80;1.10;;;9.00;99.90;;;;;;5053794;28;20033;-86
2022/11/04 04:58:37;;;;;;;1.00;0.73;;;9.00;99.90;;;;;;5053874;28;20040;-86
2022/11/04 05:01:03;;;;;;;0.97;0.87;;;9.10;99.90;;;;;;5054083;28;20028;-87
2022/11/04 05:03:29;;;;;;;0.80;0.80;;;9.10;99.90;;;;;;5053570;28;20017;-87
2022/11/04 05:05:57;;;;;;;1.03;0.87;;;9.10;99.90;;;;;;5053786;28;20115;-87
2022/11/04 05:08:23;;;;;;;0.87;0.77;;;9.10;99.90;;;;;;5053586;28;20392;-87
2022/11/04 05:10:48;;;;;;;1.10;0.93;;;9.00;99.90;;;;;;5053531;28;20027;-87
2022/11/04 05:13:28;;;;;;;1.00;0.90;;;9.00;99.90;;;;;;5052855;28;20028;-84
2022/11/04 05:15:55;;;;;;;1.27;0.90;;;9.00;99.90;;;;;;5052329;28;20017;-84
2022/11/04 05:18:20;;;;;;;1.67;0.90;;;9.00;99.90;;;;;;5051681;28;20124;-84
2022/11/04 05:20:46;;;;;;;1.03;0.90;;;9.00;99.90;;;;;;5051856;28;20171;-84
2022/11/04 05:23:12;;;;;;;1.20;0.90;;;8.90;99.90;;;;;;5052048;28;20025;-84
2022/11/04 05:25:39;;;;;;;1.80;1.10;;;8.90;99.90;;;;;;5052373;28;20429;-84
2022/11/04 05:28:05;;;;;;;1.67;0.90;;;8.90;99.90;;;;;;5051482;28;20040;-84
2022/11/04 05:30:31;;;;;;;1.87;1.07;;;8.90;99.90;;;;;;5049941;28;20025;-84
2022/11/04 05:32:56;;;;;;;1.50;1.10;;;8.90;99.90;;;;;;5037210;28;20793;-84
2022/11/04 05:35:22;;;;;;;1.70;1.10;;;8.90;99.90;;;;;;5040190;28;20153;-84
2022/11/04 05:37:48;;;;;;;3.13;1.20;;;8.90;99.90;;;;;;5050978;28;20397;-85
2022/11/04 05:40:13;;;;;;;1.40;1.03;;;8.90;99.90;;;;;;5051814;28;20075;-87
2022/11/04 05:42:39;;;;;;;1.30;1.03;;;8.90;99.90;;;;;;5053256;28;20021;-88
2022/11/04 05:45:05;;;;;;;1.60;1.00;;;9.00;99.90;;;;;;5052188;28;20105;-88
2022/11/04 05:47:31;;;;;;;2.17;1.13;;;8.90;99.90;;;;;;5052709;28;20029;-88
2022/11/04 05:49:56;;;;;;;1.00;0.80;;;8.90;99.90;;;;;;5052877;28;20147;-88
2022/11/04 05:52:22;;;;;;;2.07;0.83;;;8.80;99.90;;;;;;5052339;28;20039;-88
2022/11/04 05:54:47;;;;;;;1.53;0.93;;;8.80;99.90;;;;;;5053188;28;20029;-89
2022/11/04 05:57:13;;;;;;;3.70;1.53;;;8.70;99.90;;;;;;5052391;28;20041;-88
2022/11/04 05:59:39;;;;;;;4.13;2.20;;;8.70;99.90;;;;;;5051929;28;20025;-82
2022/11/04 06:02:04;;;;;;;4.10;1.47;;;8.60;99.90;;;;;;5052794;28;20473;-82
2022/11/04 06:04:30;;;;;;;5.73;1.90;;;8.50;99.90;;;;;;5052242;28;20017;-89
2022/11/04 06:06:56;;;;;;;1.90;1.20;;;8.50;99.90;;;;;;5052398;28;20429;-88
2022/11/04 06:09:37;;;;;;;2.27;0.93;;;8.40;99.90;;;;;;5052503;28;20021;-88
2022/11/04 06:12:05;;;;;;;1.60;0.87;;;8.40;99.90;;;;;;5048946;28;20033;-88
2022/11/04 06:14:30;;;;;;;2.63;1.20;;;8.30;99.90;;;;;;5052965;28;20028;-88
2022/11/04 06:16:56;;;;;;;4.33;1.40;;;8.30;99.90;;;;;;5052396;28;20037;-88
2022/11/04 06:19:22;;;;;;;45.00;3.83;;;8.20;99.90;;;;;;5052028;28;20145;-86
2022/11/04 06:21:48;;;;;;;5.80;1.70;;;8.20;99.90;;;;;;5051047;28;20100;-84
2022/11/04 06:24:13;;;;;;;3.30;1.40;;;8.20;99.90;;;;;;5050677;28;20086;-85
2022/11/04 06:26:39;;;;;;;3.60;1.70;;;8.20;99.90;;;;;;5049479;28;20807;-85
2022/11/04 06:29:05;;;;;;;4.90;1.50;;;8.20;99.90;;;;;;5052223;28;20103;-82
2022/11/04 06:31:30;;;;;;;2.47;1.50;;;8.10;99.90;;;;;;5052499;28;20033;-82
2022/11/04 06:33:56;;;;;;;3.47;1.50;;;8.10;99.90;;;;;;5052783;28;20071;-82
2022/11/04 06:36:21;;;;;;;3.63;1.47;;;8.10;99.90;;;;;;5051484;28;20057;-81
2022/11/04 06:38:47;;;;;;;5.43;1.47;;;8.10;99.90;;;;;;5051613;28;20032;-79
2022/11/04 06:41:15;;;;;;;4.33;1.40;;;8.10;99.90;;;;;;5052448;28;20458;-83
2022/11/04 06:43:41;;;;;;;1.83;1.20;;;8.10;99.90;;;;;;5052798;28;20025;-84
2022/11/04 06:46:23;;;;;;;3.10;1.47;;;8.10;99.90;;;;;;5052473;28;20104;-82
2022/11/04 06:48:48;;;;;;;3.17;1.40;;;8.10;99.90;;;;;;5052824;28;20416;-83
2022/11/04 06:51:14;;;;;;;3.27;1.50;;;8.00;99.90;;;;;;5052388;28;20093;-82
2022/11/04 06:53:39;;;;;;;18.60;5.20;;;8.00;99.90;;;;;;5051072;28;20457;-83
2022/11/04 06:56:05;;;;;;;6.27;2.37;;;8.00;99.90;;;;;;5051946;28;20029;-79
2022/11/04 06:58:31;;;;;;;2.43;1.30;;;8.00;99.90;;;;;;5052093;28;20099;-84
2022/11/04 07:00:57;;;;;;;2.70;1.40;;;8.00;99.90;;;;;;5052045;28;20525;-82
2022/11/04 07:03:22;;;;;;;5.23;1.50;;;8.00;99.90;;;;;;5051953;28;20104;-83
2022/11/04 07:05:48;;;;;;;2.50;1.30;;;8.00;99.90;;;;;;5052553;28;20035;-83
2022/11/04 07:08:13;;;;;;;6.83;1.90;;;8.00;99.90;;;;;;5052968;28;20106;-84
2022/11/04 07:10:39;;;;;;;3.03;2.10;;;8.00;99.90;;;;;;5053411;28;20021;-85
2022/11/04 07:13:05;;;;;;;3.53;2.10;;;8.00;99.90;;;;;;5055745;28;20552;-79
2022/11/04 07:15:32;;;;;;;3.37;1.70;;;8.00;99.90;;;;;;5054124;28;20051;-81
2022/11/04 07:17:58;;;;;;;3.67;1.50;;;8.00;99.90;;;;;;5056080;28;20136;-82
2022/11/04 07:20:25;;;;;;;6.03;2.33;;;8.00;99.90;;;;;;5055969;28;20021;-82
2022/11/04 07:22:53;;;;;;;5.27;2.80;;;8.10;99.90;;;;;;5055501;28;20465;-81
2022/11/04 07:25:19;;;;;;;2.97;1.90;;;8.10;99.90;;;;;;5068165;28;20078;-82
2022/11/04 07:27:48;;;;;;;4.53;1.80;;;8.10;99.90;;;;;;5055310;28;20030;-82
2022/11/04 07:30:19;;;;;;;3.50;2.13;;;8.10;99.90;;;;;;5052601;28;20036;-89
2022/11/04 07:32:45;;;;;;;3.63;1.87;;;8.10;99.90;;;;;;5053140;28;20866;-83
2022/11/04 07:35:11;;;;;;;4.40;2.13;;;8.10;99.90;;;;;;5055143;28;20056;-83
2022/11/04 07:37:37;;;;;;;2.97;1.77;;;8.10;99.90;;;;;;5054894;28;20024;-83
2022/11/04 07:40:04;;;;;;;2.63;1.80;;;8.10;99.90;;;;;;5053588;28;20036;-83
2022/11/04 07:42:30;;;;;;;2.30;1.73;;;8.10;99.90;;;;;;5053360;28;20063;-83
2022/11/04 07:44:56;;;;;;;2.57;1.50;;;8.10;99.90;;;;;;5050051;28;20061;-83
2022/11/04 07:47:21;;;;;;;2.23;1.30;;;8.00;99.90;;;;;;5054049;28;20017;-83
2022/11/04 07:49:48;;;;;;;6.63;1.50;;;8.00;99.90;;;;;;5053542;28;20095;-83
2022/11/04 07:52:14;;;;;;;2.63;1.20;;;8.00;99.90;;;;;;5054158;28;20423;-83
2022/11/04 07:54:39;;;;;;;3.20;1.33;;;8.00;99.90;;;;;;5052658;28;20075;-83
2022/11/04 07:57:05;;;;;;;1.97;1.40;;;8.00;99.90;;;;;;5054053;28;20033;-83
2022/11/04 07:59:31;;;;;;;4.90;1.40;;;8.00;99.90;;;;;;5053973;28;20044;-83
2022/11/04 08:01:56;;;;;;;3.33;1.50;;;8.00;99.90;;;;;;5054060;28;20146;-83
2022/11/04 08:04:22;;;;;;;1.60;1.07;;;8.00;99.90;;;;;;5053836;28;20474;-83
2022/11/04 08:06:47;;;;;;;2.93;1.40;;;8.00;99.90;;;;;;5053845;28;20036;-83
2022/11/04 08:09:13;;;;;;;2.07;1.30;;;8.00;99.90;;;;;;5053899;28;20358;-83
2022/11/04 08:11:38;;;;;;;2.40;1.13;;;8.00;99.90;;;;;;5053670;28;20021;-83
2022/11/04 08:14:04;;;;;;;2.00;1.00;;;8.00;99.90;;;;;;5053494;28;20121;-83
2022/11/04 08:16:30;;;;;;;3.20;1.60;;;8.00;99.90;;;;;;5053412;28;20100;-83
2022/11/04 08:19:00;;;;;;;2.80;1.50;;;8.00;99.90;;;;;;5052466;28;20025;-82
2022/11/04 08:21:30;;;;;;;4.77;1.70;;;8.00;99.90;;;;;;5052732;28;20033;-89
2022/11/04 08:23:56;;;;;;;2.27;1.50;;;8.00;99.90;;;;;;5051089;28;20097;-89
2022/11/04 08:26:22;;;;;;;2.27;1.40;;;8.00;99.90;;;;;;5052341;28;20100;-88
2022/11/04 08:28:49;;;;;;;2.13;1.40;;;8.00;99.90;;;;;;5051028;28;20039;-89
2022/11/04 08:31:27;;;;;;;3.50;1.43;;;8.10;99.90;;;;;;5045337;28;20450;-88
2022/11/04 08:33:54;;;;;;;3.23;1.30;;;8.10;99.90;;;;;;5051889;28;20509;-88
2022/11/04 08:36:27;;;;;;;3.23;1.60;;;8.10;99.90;;;;;;5051923;28;20102;-89
2022/11/04 08:38:53;;;;;;;1.60;1.20;;;8.10;99.90;;;;;;5051761;28;20028;-89
2022/11/04 08:41:21;;;;;;;2.53;1.13;;;8.10;99.90;;;;;;5051987;28;20036;-89
2022/11/04 08:43:47;;;;;;;1.27;1.10;;;8.10;99.90;;;;;;5051596;28;20103;-89
2022/11/04 08:46:14;;;;;;;2.20;1.30;;;8.10;99.90;;;;;;5051244;28;20021;-89
2022/11/04 08:48:41;;;;;;;3.57;1.57;;;8.10;99.90;;;;;;5051276;28;20020;-88
2022/11/04 08:51:19;;;;;;;2.77;1.93;;;8.10;99.90;;;;;;5051815;28;20422;-89
2022/11/04 08:53:44;;;;;;;2.37;1.20;;;8.10;99.90;;;;;;5051425;28;20040;-88
2022/11/04 08:56:34;;;;;;;4.00;1.70;;;8.10;99.90;;;;;;5050086;28;20025;-88
2022/11/04 08:59:01;;;;;;;3.03;1.70;;;8.20;99.90;;;;;;5051494;28;20036;-88
2022/11/04 09:01:28;;;;;;;2.63;1.80;;;8.10;99.90;;;;;;5051172;28;20048;-89
2022/11/04 09:03:54;;;;;;;2.53;1.60;;;8.20;99.90;;;;;;5051325;28;20573;-89
2022/11/04 09:06:27;;;;;;;2.83;1.60;;;8.20;99.90;;;;;;5051112;28;20103;-89
2022/11/04 09:09:01;;;;;;;2.73;1.63;;;8.20;99.90;;;;;;5051020;28;20036;-88
2022/11/04 09:11:27;;;;;;;2.87;1.40;;;8.20;99.90;;;;;;5051720;28;20422;-89
2022/11/04 09:13:52;;;;;;;4.97;1.70;;;8.30;99.90;;;;;;5050333;28;20312;-88
2022/11/04 09:16:18;;;;;;;3.03;1.40;;;8.30;99.90;;;;;;5050495;28;20056;-89
2022/11/04 09:18:44;;;;;;;3.33;1.53;;;8.40;99.90;;;;;;5051177;28;20033;-89
2022/11/04 09:21:10;;;;;;;2.70;1.63;;;8.40;99.90;;;;;;5051111;28;20175;-88
2022/11/04 09:23:36;;;;;;;1.53;1.23;;;8.40;99.90;;;;;;5051030;28;20018;-89
2022/11/04 09:26:11;;;;;;;2.80;1.60;;;8.40;99.90;;;;;;5051217;28;20021;-89
2022/11/04 09:28:37;;;;;;;2.90;1.40;;;8.40;99.90;;;;;;5051056;28;20021;-89
2022/11/04 09:31:08;;;;;;;3.67;1.40;;;8.40;99.90;;;;;;5043207;28;20115;-89
2022/11/04 09:33:34;;;;;;;2.70;1.40;;;8.40;99.90;;;;;;5055077;28;20063;-89
2022/11/04 09:36:00;;;;;;;2.47;1.40;;;8.40;99.90;;;;;;5053424;28;20033;-89
2022/11/04 09:38:25;;;;;;;4.83;2.00;;;8.30;99.90;;;;;;5051120;28;20076;-89
2022/11/04 09:40:51;;;;;;;2.23;1.60;;;8.30;99.90;;;;;;5051029;28;20406;-89
2022/11/04 09:43:32;;;;;;;2.97;1.67;;;8.30;99.90;;;;;;5051083;28;20051;-89
2022/11/04 09:46:00;;;;;;;6.57;1.90;;;8.30;99.90;;;;;;5051133;28;20067;-89
2022/11/04 09:48:35;;;;;;;3.33;2.00;;;8.30;99.90;;;;;;5050606;28;20029;-89
2022/11/04 09:51:04;;;;;;;4.43;2.50;;;8.30;99.90;;;;;;5050890;28;20335;-88
2022/11/04 09:54:01;;;;;;;4.27;2.20;;;8.30;99.90;;;;;;5050303;28;20104;-88
2022/11/04 09:56:34;;;;;;;6.30;2.63;;;8.30;99.90;;;;;;5047652;28;20032;-88
2022/11/04 09:59:07;;;;;;;3.83;2.07;;;8.20;99.90;;;;;;5049037;28;20036;-88
2022/11/04 10:01:45;;;;;;;3.67;2.00;;;8.20;99.90;;;;;;5049793;28;20029;-88
2022/11/04 10:04:19;;;;;;;3.43;2.00;;;8.20;99.90;;;;;;5051419;28;20016;-88
2022/11/04 10:07:16;;;;;;;2.95;1.63;;;8.20;99.90;;;;;;5049577;28;20071;-88
2022/11/04 10:10:12;;;;;;;2.77;1.73;;;8.20;99.90;;;;;;5036194;28;20033;-88
2022/11/04 10:12:53;;;;;;;4.07;1.70;;;8.20;99.90;;;;;;5049916;28;20021;-88
2022/11/04 10:15:45;;;;;;;5.43;1.70;;;8.20;99.90;;;;;;5051316;28;20028;-89
2022/11/04 10:18:14;;;;;;;4.27;1.50;;;8.20;99.90;;;;;;5050637;28;20422;-89
2022/11/04 10:20:53;;;;;;;4.00;1.60;;;8.20;99.90;;;;;;5050067;28;20458;-88
2022/11/04 10:23:27;;;;;;;6.40;1.60;;;8.30;99.90;;;;;;5049647;28;20028;-88
2022/11/04 10:26:13;;;;;;;2.70;1.47;;;8.40;99.90;;;;;;5049226;28;20029;-88
2022/11/04 10:28:51;;;;;;;2.80;1.83;;;8.50;99.90;;;;;;5049931;28;20052;-88
2022/11/04 10:31:17;;;;;;;3.17;1.70;;;8.50;99.90;;;;;;5042551;28;20036;-88
2022/11/04 10:33:59;;;;;;;4.23;1.70;;;8.60;99.90;;;;;;5039039;28;20025;-88
2022/11/04 10:36:25;;;;;;;5.40;1.80;;;8.60;99.90;;;;;;5050263;28;20025;-88
2022/11/04 10:38:56;;;;;;;3.83;1.60;;;8.70;99.90;;;;;;5049349;28;20370;-88
2022/11/04 10:41:34;;;;;;;5.87;1.90;;;8.80;99.90;;;;;;5049734;28;20025;-88
2022/11/04 10:44:07;;;;;;;4.33;1.93;;;8.80;99.90;;;;;;5049235;28;20025;-88
2022/11/04 10:46:40;;;;;;;3.13;1.70;;;8.80;99.90;;;;;;5051295;28;20427;-88
2022/11/04 10:49:44;;;;;;;2.73;1.40;;;8.90;99.90;;;;;;5054523;28;20063;-88
2022/11/04 10:52:10;;;;;;;2.63;1.50;;;8.90;99.90;;;;;;5053626;28;20504;-88
2022/11/04 10:54:40;;;;;;;2.17;1.50;;;8.90;99.90;;;;;;5053307;28;20033;-88
2022/11/04 10:57:06;;;;;;;2.83;1.63;;;9.00;99.90;;;;;;5053009;28;20025;-88
2022/11/04 10:59:52;;;;;;;3.97;1.80;;;8.90;99.90;;;;;;5053498;28;20106;-88
2022/11/04 11:02:38;;;;;;;3.67;1.77;;;9.00;99.90;;;;;;5053458;28;20129;-88
2022/11/04 11:05:22;;;;;;;2.73;1.50;;;9.00;99.90;;;;;;5054815;28;20037;-88
2022/11/04 11:07:51;;;;;;;2.77;1.60;;;8.90;99.90;;;;;;5054552;28;20020;-88
2022/11/04 11:10:22;;;;;;;5.27;1.80;;;9.00;99.90;;;;;;5054636;28;20033;-88
2022/11/04 11:13:00;;;;;;;4.77;1.97;;;8.90;99.90;;;;;;5054868;28;20035;-88
2022/11/04 11:15:29;;;;;;;3.60;2.10;;;9.00;99.90;;;;;;5055385;28;20489;-88
2022/11/04 11:18:00;;;;;;;3.43;1.93;;;9.00;99.90;;;;;;5054416;28;20068;-88
2022/11/04 11:20:26;;;;;;;3.17;1.73;;;9.00;99.90;;;;;;5057956;28;20021;-87
2022/11/04 11:22:53;;;;;;;3.03;2.00;;;9.00;99.90;;;;;;5059623;28;20434;-88
2022/11/04 11:25:23;;;;;;;4.43;1.93;;;9.00;99.90;;;;;;5058606;28;20418;-87
2022/11/04 11:28:04;;;;;;;4.47;1.90;;;9.00;99.90;;;;;;5055425;28;20537;-88
2022/11/04 11:30:31;;;;;;;6.73;2.87;;;9.10;99.90;;;;;;5048917;28;20050;-88
2022/11/04 11:33:02;;;;;;;5.63;2.93;;;9.10;99.90;;;;;;5054163;28;20437;-87
2022/11/04 11:35:40;;;;;;;6.83;2.87;;;9.10;99.90;;;;;;5054600;28;20047;-88
2022/11/04 11:38:26;;;;;;;5.80;3.30;;;9.10;99.90;;;;;;5054235;28;20023;-88
2022/11/04 11:40:53;;;;;;;4.13;3.00;;;9.10;99.90;;;;;;5054724;28;20040;-88
2022/11/04 11:43:25;;;;;;;4.40;2.47;;;9.10;99.90;;;;;;5054962;28;20094;-88
2022/11/04 11:45:53;;;;;;;3.67;2.20;;;9.10;99.90;;;;;;5053186;28;20033;-89
2022/11/04 11:48:39;;;;;;;3.13;1.90;;;9.10;99.90;;;;;;5052935;28;20060;-88
2022/11/04 11:51:06;;;;;;;3.60;2.10;;;9.00;99.90;;;;;;5054315;28;20515;-88
2022/11/04 11:53:33;;;;;;;2.67;2.20;;;9.10;99.90;;;;;;5054287;28;20033;-88
2022/11/04 11:56:37;;;;;;;2.27;1.70;;;9.00;99.90;;;;;;5054331;28;20028;-89
2022/11/04 11:59:24;;;;;;;3.60;1.43;;;9.10;99.90;;;;;;5010925;28;20105;-88
2022/11/04 12:02:11;;;;;;;3.87;1.90;;;9.10;99.90;;;;;;5051963;28;20086;-87
2022/11/04 12:04:36;;;;;;;4.90;1.80;;;9.10;99.90;;;;;;5053378;28;20489;-88
2022/11/04 12:07:26;;;;;;;2.20;1.40;;;9.10;99.90;;;;;;5053860;28;20099;-88
2022/11/04 12:10:10;;;;;;;5.00;1.67;;;9.10;99.90;;;;;;5054422;28;20083;-88
2022/11/04 12:13:01;;;;;;;3.60;1.90;;;9.10;99.90;;;;;;5040600;28;20025;-88
2022/11/04 12:15:51;;;;;;;2.87;1.57;;;9.10;99.90;;;;;;5054149;28;20024;-88
2022/11/04 12:18:43;;;;;;;2.57;1.70;;;9.20;99.90;;;;;;5054192;28;20545;-88
2022/11/04 12:21:15;;;;;;;3.83;2.20;;;9.20;99.90;;;;;;5055598;28;20102;-88
2022/11/04 12:23:52;;;;;;;2.27;1.47;;;9.20;99.90;;;;;;5054152;28;20024;-88
2022/11/04 12:26:38;;;;;;;2.80;1.63;;;9.20;99.90;;;;;;5053973;28;20356;-88
2022/11/04 12:29:26;;;;;;;3.40;1.50;;;9.30;99.90;;;;;;5053522;28;20025;-88
2022/11/04 12:32:14;;;;;;;4.57;1.77;;;9.20;99.90;;;;;;5046868;28;20025;-88
2022/11/04 12:34:58;;;;;;;1.93;1.30;;;9.20;99.90;;;;;;5033292;28;20172;-88
2022/11/04 12:37:49;;;;;;;4.50;1.50;;;9.20;99.90;;;;;;5033203;28;20029;-87
2022/11/04 12:40:20;;;;;;;3.60;2.00;;;9.20;99.90;;;;;;5033287;28;20026;-87
2022/11/04 12:43:09;;;;;;;3.13;1.73;;;9.30;99.90;;;;;;5033052;28;20453;-88
2022/11/04 12:46:05;;;;;;;3.67;2.10;;;9.30;99.90;;;;;;5033293;28;20056;-87
2022/11/04 12:48:37;;;;;;;5.83;3.03;;;9.40;99.90;;;;;;5033476;28;20025;-88
2022/11/04 12:51:31;;;;;;;4.73;2.40;;;9.40;99.90;;;;;;5033265;28;20044;-87
2022/11/04 12:54:32;;;;;;;4.47;2.23;;;9.50;99.90;;;;;;5033341;28;20026;-87
2022/11/04 12:57:03;;;;;;;3.33;1.70;;;9.50;99.90;;;;;;5033166;28;20130;-87
2022/11/04 12:59:44;;;;;;;2.73;1.60;;;9.50;99.90;;;;;;5033238;28;20039;-87
2022/11/04 13:02:23;;;;;;;2.60;1.60;;;9.50;99.90;;;;;;5037783;28;20504;-87
2022/11/04 13:04:53;;;;;;;3.27;1.40;;;9.50;99.90;;;;;;5053407;28;20021;-87
2022/11/04 13:07:23;;;;;;;3.58;1.40;;;9.40;99.90;;;;;;5052493;28;20027;-87
2022/11/04 13:09:53;;;;;;;3.60;1.60;;;9.30;99.90;;;;;;5052560;28;20418;-87
2022/11/04 13:12:30;;;;;;;2.00;1.50;;;9.20;99.90;;;;;;5052980;28;20028;-87
2022/11/04 13:15:01;;;;;;;3.47;2.03;;;9.20;99.90;;;;;;5053227;28;20032;-87
2022/11/04 13:17:38;;;;;;;3.07;1.70;;;9.20;99.90;;;;;;5053039;28;20386;-87
2022/11/04 13:20:10;;;;;;;2.20;1.63;;;9.10;99.90;;;;;;5052765;28;20037;-87
2022/11/04 13:22:37;;;;;;;2.93;1.67;;;9.10;99.90;;;;;;5052609;28;20021;-87
2022/11/04 13:25:15;;;;;;;6.10;2.23;;;9.10;99.90;;;;;;5052616;28;20556;-87
2022/11/04 13:27:44;;;;;;;2.53;1.70;;;9.10;99.90;;;;;;5052591;28;20052;-86
2022/11/04 13:30:22;;;;;;;2.47;1.50;;;9.10;99.90;;;;;;5048872;28;20025;-87
2022/11/04 13:33:15;;;;;;;2.30;1.57;;;9.00;99.90;;;;;;5052808;28;20078;-87
2022/11/04 13:35:52;;;;;;;3.43;1.60;;;8.90;99.90;;;;;;5052397;28;20029;-87
2022/11/04 13:39:04;;;;;;;3.70;1.40;;;9.00;99.90;;;;;;5052595;28;20029;-87
2022/11/04 13:41:59;;;;;;;2.63;1.70;;;8.90;99.90;;;;;;5052866;28;20086;-87
2022/11/04 13:44:29;;;;;;;4.47;1.60;;;8.90;99.90;;;;;;5025461;28;20084;-87
2022/11/04 13:46:58;;;;;;;3.50;1.60;;;8.90;99.90;;;;;;5035267;28;20017;-87
2022/11/04 13:49:32;;;;;;;2.03;1.40;;;8.80;99.90;;;;;;5052220;28;20048;-87
2022/11/04 13:52:07;;;;;;;3.10;1.63;;;8.80;99.90;;;;;;5052273;28;20094;-87
2022/11/04 13:54:43;;;;;;;2.50;1.52;;;8.80;99.90;;;;;;5050848;28;20025;-87
2022/11/04 13:57:17;;;;;;;1.97;1.40;;;8.80;99.90;;;;;;5050178;28;20028;-87